Time;durP1;ratioP1;P1;durP2;ratioP2;P2;SDS_P1;SDS_P2;PMS_P1;PMS_P2;Temp;Humidity;BMP_temperature;BMP_pressure;BME280_temperature;BME280_humidity;BME280_pressure;Samples;Min_cycle;Max_cycle;Signal;HPM_P1;HPM_P2
2022/01/11 00:03:27;;;;;;;;;;;;;;;-6.26;83.50;100939.75;445369;1270;128659;-59
2022/01/11 00:13:31;;;;;;;;;;;;;;;-6.24;83.41;100949.19;447543;1271;128787;-60
2022/01/11 00:34:13;;;;;;;;;;;;;;;-6.27;83.29;100955.08;442949;1271;128032;-59
2022/01/11 00:44:18;;;;;;;;;;;;;;;-6.45;83.39;100963.96;447401;1271;127954;-59
2022/01/11 00:54:22;;;;;;;;;;;;;;;-6.58;83.55;100965.64;446606;1271;129426;-59
2022/01/11 01:04:27;;;;;;;;;;;;;;;-6.65;83.74;100977.02;447442;1271;128574;-58
2022/01/11 01:14:31;;;;;;;;;;;;;;;-6.71;83.69;100978.05;447592;1271;128488;-60
2022/01/11 01:24:35;;;;;;;;;;;;;;;-6.74;83.56;100972.67;447039;1271;150048;-58
2022/01/11 01:34:39;;;;;;;;;;;;;;;-7.00;83.10;100985.88;447631;1271;128081;-59
2022/01/11 01:44:44;;;;;;;;;;;;;;;-7.20;83.25;100989.37;447547;1271;128610;-58
2022/01/11 01:54:48;;;;;;;;;;;;;;;-7.27;83.16;100996.13;440321;1271;129094;-58
2022/01/11 02:04:54;;;;;;;;;;;;;;;-7.34;82.91;101008.84;447711;1271;128468;-58
2022/01/11 02:14:58;;;;;;;;;;;;;;;-7.42;82.70;101011.80;447124;1273;127818;-58
2022/01/11 02:25:03;;;;;;;;;;;;;;;-7.47;82.62;101025.08;442275;1271;128731;-58
2022/01/11 02:35:08;;;;;;;;;;;;;;;-7.32;82.42;101027.98;439523;1271;129514;-55
2022/01/11 02:45:16;;;;;;;;;;;;;;;-7.36;82.45;101025.12;443486;1271;128004;-56
2022/01/11 02:55:20;;;;;;;;;;;;;;;-7.55;82.30;101024.15;443261;1271;128307;-57
2022/01/11 03:05:24;;;;;;;;;;;;;;;-7.68;82.39;101030.70;447715;1270;170536;-58
2022/01/11 03:15:29;;;;;;;;;;;;;;;-7.80;81.90;101032.70;430807;1271;127951;-57
2022/01/11 03:25:34;;;;;;;;;;;;;;;-7.92;81.98;101033.98;447127;1272;128203;-57
2022/01/11 03:35:39;;;;;;;;;;;;;;;-8.08;81.62;101041.08;447742;1270;128096;-58
2022/01/11 03:45:43;;;;;;;;;;;;;;;-8.20;81.42;101042.18;446888;1270;129566;-59
2022/01/11 03:56:09;;;;;;;;;;;;;;;-8.30;81.22;101045.04;447669;1270;132819;-58
2022/01/11 04:06:16;;;;;;;;;;;;;;;-8.44;81.03;101054.23;447227;1271;128980;-54
2022/01/11 04:16:20;;;;;;;;;;;;;;;-8.63;80.89;101063.40;447631;1269;181657;-58
2022/01/11 04:26:25;;;;;;;;;;;;;;;-8.70;80.89;101072.11;444248;1270;129243;-58
2022/01/11 04:36:30;;;;;;;;;;;;;;;-8.86;80.68;101086.64;435440;1270;127517;-58
2022/01/11 04:46:34;;;;;;;;;;;;;;;-9.00;80.59;101096.08;447698;1270;128899;-59
2022/01/11 04:56:38;;;;;;;;;;;;;;;-9.12;80.33;101098.02;447684;1270;128009;-58
2022/01/11 05:06:43;;;;;;;;;;;;;;;-9.19;80.26;101108.39;446996;1270;129337;-58
2022/01/11 05:16:47;;;;;;;;;;;;;;;-9.20;80.39;101122.45;447712;1271;128879;-58
2022/01/11 05:26:51;;;;;;;;;;;;;;;-9.26;80.39;101127.61;447714;1269;128175;-58
2022/01/11 05:36:55;;;;;;;;;;;;;;;-9.37;80.36;101132.95;447017;1270;129057;-55
2022/01/11 05:46:59;;;;;;;;;;;;;;;-9.43;80.31;101139.30;447707;1270;127736;-57
2022/01/11 05:57:04;;;;;;;;;;;;;;;-9.43;80.57;101149.30;447720;1269;129467;-58
2022/01/11 06:07:08;;;;;;;;;;;;;;;-9.45;80.39;101156.88;444790;1270;129800;-58
2022/01/11 06:17:12;;;;;;;;;;;;;;;-9.49;80.43;101167.02;447144;1273;128027;-58
2022/01/11 06:27:17;;;;;;;;;;;;;;;-9.61;80.40;101175.67;447056;1270;128635;-58
2022/01/11 06:37:21;;;;;;;;;;;;;;;-9.62;80.04;101194.77;447660;1270;128934;-58
2022/01/11 06:47:25;;;;;;;;;;;;;;;-9.72;80.08;101198.77;447687;1270;128974;-58
2022/01/11 06:57:29;;;;;;;;;;;;;;;-9.72;80.23;101209.94;447030;1270;129050;-59
2022/01/11 07:07:34;;;;;;;;;;;;;;;-9.53;80.31;101217.73;447652;1270;128488;-59
2022/01/11 07:17:38;;;;;;;;;;;;;;;-9.40;79.80;101230.01;440214;1270;129907;-59
2022/01/11 07:27:42;;;;;;;;;;;;;;;-8.95;80.07;101235.80;446966;1270;128370;-59
2022/01/11 07:37:47;;;;;;;;;;;;;;;-8.41;79.89;101242.03;447693;1271;128506;-59
2022/01/11 07:47:51;;;;;;;;;;;;;;;-7.42;79.65;101238.40;447653;1270;128443;-59
2022/01/11 07:57:55;;;;;;;;;;;;;;;-5.66;79.32;101225.24;446954;1270;128367;-58
2022/01/11 08:07:59;;;;;;;;;;;;;;;-3.14;78.15;101225.31;435206;1271;129173;-60
2022/01/11 08:18:04;;;;;;;;;;;;;;;-0.78;76.34;101225.52;437580;1271;131371;-64
2022/01/11 08:28:09;;;;;;;;;;;;;;;1.15;74.55;101220.46;440537;1270;127284;-59
2022/01/11 08:38:13;;;;;;;;;;;;;;;2.76;72.51;101221.54;447617;1270;127622;-62
2022/01/11 08:48:18;;;;;;;;;;;;;;;4.08;70.92;101226.56;447052;1270;127346;-59
2022/01/11 08:58:22;;;;;;;;;;;;;;;4.65;69.73;101235.27;438387;1270;127064;-62
2022/01/11 09:08:27;;;;;;;;;;;;;;;5.04;68.74;101240.30;444192;1270;127569;-61
2022/01/11 09:18:31;;;;;;;;;;;;;;;4.62;67.59;101246.59;446862;1271;127013;-61
2022/01/11 09:28:35;;;;;;;;;;;;;;;5.27;66.72;101249.80;447625;1270;127963;-63
2022/01/11 09:38:39;;;;;;;;;;;;;;;7.57;65.41;101249.63;447440;1269;127036;-58
2022/01/11 09:48:45;;;;;;;;;;;;;;;5.84;64.75;101252.64;446656;1268;127274;-63
2022/01/11 09:58:49;;;;;;;;;;;;;;;3.53;66.02;101249.36;447613;1270;127613;-67
2022/01/11 10:09:07;;;;;;;;;;;;;;;1.69;67.14;101252.45;447457;1270;127938;-63
2022/01/11 10:19:21;;;;;;;;;;;;;;;0.73;68.55;101261.98;434970;1270;128580;-63
2022/01/11 10:29:28;;;;;;;;;;;;;;;0.18;69.50;101262.26;444639;1270;128078;-63
2022/01/11 10:39:36;;;;;;;;;;;;;;;-0.19;70.21;101274.91;446996;1271;126631;-63
2022/01/11 10:49:40;;;;;;;;;;;;;;;-0.66;70.82;101286.40;447574;1270;129347;-64
2022/01/11 11:00:04;;;;;;;;;;;;;;;-0.68;70.89;101293.43;447427;1270;173286;-66
2022/01/11 11:10:09;;;;;;;;;;;;;;;-1.06;71.61;101305.93;446921;1271;127963;-64
2022/01/11 11:20:13;;;;;;;;;;;;;;;-1.26;71.84;101302.06;444829;1270;127278;-61
2022/01/11 11:30:18;;;;;;;;;;;;;;;-1.57;72.13;101298.06;429237;1271;128309;-68
2022/01/11 11:40:24;;;;;;;;;;;;;;;-1.64;72.74;101297.11;442469;1271;128217;-65
2022/01/11 11:50:28;;;;;;;;;;;;;;;-2.02;72.64;101305.67;447689;1270;127724;-59
2022/01/11 12:00:35;;;;;;;;;;;;;;;-2.37;73.19;101295.50;444533;1270;127431;-62
2022/01/11 12:10:53;;;;;;;;;;;;;;;-2.46;73.66;101285.75;445854;1271;127340;-64
2022/01/11 12:20:58;;;;;;;;;;;;;;;-2.51;73.85;101292.36;447727;1270;129440;-69
2022/01/11 12:31:16;;;;;;;;;;;;;;;-2.57;74.09;101287.45;447015;1271;128936;-69
2022/01/11 12:41:30;;;;;;;;;;;;;;;-2.51;74.30;101296.30;438774;1271;128453;-70
2022/01/11 12:51:37;;;;;;;;;;;;;;;-2.47;74.30;101305.80;446347;1271;128625;-68
2022/01/11 13:01:41;;;;;;;;;;;;;;;-2.37;74.53;101306.48;446165;1271;127868;-69
2022/01/11 13:11:54;;;;;;;;;;;;;;;-2.02;74.55;101313.58;447840;1271;127356;-69
2022/01/11 13:22:04;;;;;;;;;;;;;;;-1.64;74.30;101313.61;447124;1270;128334;-64
2022/01/11 13:32:09;;;;;;;;;;;;;;;-1.49;74.11;101315.35;447723;1270;128073;-64
2022/01/11 13:42:14;;;;;;;;;;;;;;;-1.64;73.94;101315.85;447345;1270;127585;-64
2022/01/11 13:52:19;;;;;;;;;;;;;;;-1.82;74.04;101320.22;447373;1270;196117;-64
2022/01/11 14:02:26;;;;;;;;;;;;;;;-2.14;74.03;101315.95;447751;1271;127724;-68
2022/01/11 14:12:30;;;;;;;;;;;;;;;-2.61;74.26;101309.50;445347;1270;128632;-65
2022/01/11 14:22:55;;;;;;;;;;;;;;;-2.74;74.79;101310.48;439345;1271;127760;-65
2022/01/11 14:33:00;;;;;;;;;;;;;;;-2.87;75.05;101304.58;437419;1271;127546;-60
2022/01/11 14:43:12;;;;;;;;;;;;;;;-2.96;75.28;101302.70;432842;1271;127546;-61
2022/01/11 14:53:16;;;;;;;;;;;;;;;-3.15;75.61;101309.35;432085;1271;131608;-64
2022/01/11 15:03:34;;;;;;;;;;;;;;;-3.28;75.95;101314.39;430846;1271;127621;-63
2022/01/11 15:13:40;;;;;;;;;;;;;;;-3.35;76.16;101319.55;431199;1271;128075;-61
2022/01/11 15:23:44;;;;;;;;;;;;;;;-3.45;76.38;101326.70;430485;1271;127398;-66
2022/01/11 15:33:54;;;;;;;;;;;;;;;-3.48;76.50;101332.10;430087;1271;128400;-67
2022/01/11 15:43:59;;;;;;;;;;;;;;;-3.50;76.81;101330.89;432954;1271;128646;-65
2022/01/11 15:54:06;;;;;;;;;;;;;;;-3.51;76.80;101331.89;429956;1271;127424;-64
2022/01/11 16:04:10;;;;;;;;;;;;;;;-3.53;77.03;101346.05;430791;1271;127784;-69
2022/01/11 16:14:15;;;;;;;;;;;;;;;-3.49;76.93;101350.60;432152;1270;128478;-65
2022/01/11 16:24:23;;;;;;;;;;;;;;;-3.58;76.99;101346.98;431414;1273;128396;-64
2022/01/11 16:34:27;;;;;;;;;;;;;;;-3.95;77.19;101354.02;434780;1271;128440;-63
2022/01/11 16:44:33;;;;;;;;;;;;;;;-4.40;77.47;101352.52;431314;1271;127878;-64
2022/01/11 16:54:37;;;;;;;;;;;;;;;-4.82;77.88;101356.74;431071;1271;129342;-64
2022/01/11 17:04:42;;;;;;;;;;;;;;;-5.04;78.48;101359.72;433326;1269;129264;-61
2022/01/11 17:14:47;;;;;;;;;;;;;;;-5.15;78.73;101359.06;430955;1271;129081;-63
2022/01/11 17:24:51;;;;;;;;;;;;;;;-5.37;78.64;101363.02;432062;1271;127789;-64
2022/01/11 17:34:56;;;;;;;;;;;;;;;-5.40;79.30;101370.80;431625;1273;127702;-64
2022/01/11 17:45:01;;;;;;;;;;;;;;;-5.10;79.71;101373.21;431974;1271;127966;-64
2022/01/11 17:55:07;;;;;;;;;;;;;;;-4.96;79.82;101377.88;432052;1273;177745;-64
2022/01/11 18:05:11;;;;;;;;;;;;;;;-4.94;79.98;101390.39;436709;1272;126837;-65
2022/01/11 18:15:15;;;;;;;;;;;;;;;-4.98;79.80;101403.44;432445;1273;128183;-61
2022/01/11 18:25:20;;;;;;;;;;;;;;;-5.01;80.04;101412.58;434473;1271;137454;-63
2022/01/11 18:35:26;;;;;;;;;;;;;;;-5.02;80.08;101424.85;433135;1271;127366;-65
2022/01/11 18:45:30;;;;;;;;;;;;;;;-5.02;80.08;101425.69;432653;1271;129645;-65
2022/01/11 18:55:35;;;;;;;;;;;;;;;-5.09;79.94;101441.73;432358;1271;127488;-64
2022/01/11 19:05:40;;;;;;;;;;;;;;;-5.01;80.25;101443.83;433365;1271;129396;-65
2022/01/11 19:15:44;;;;;;;;;;;;;;;-4.74;80.11;101444.79;433972;1270;127595;-67
2022/01/11 19:25:50;;;;;;;;;;;;;;;-4.64;79.69;101450.54;430774;1271;129902;-66
2022/01/11 19:35:54;;;;;;;;;;;;;;;-4.64;79.50;101457.73;431256;1271;130313;-65
2022/01/11 19:46:08;;;;;;;;;;;;;;;-4.69;79.68;101456.89;432184;1271;128831;-64
2022/01/11 19:56:12;;;;;;;;;;;;;;;-4.76;79.69;101465.59;432659;1271;127233;-66
2022/01/11 20:06:17;;;;;;;;;;;;;;;-4.85;79.91;101464.65;431469;1271;131481;-65
2022/01/11 20:16:21;;;;;;;;;;;;;;;-4.86;79.94;101458.13;435518;1271;127197;-66
2022/01/11 20:36:48;;;;;;;;;;;;;;;-4.85;80.19;101461.05;432901;1271;127541;-65
2022/01/11 20:46:54;;;;;;;;;;;;;;;-4.72;80.29;101451.17;434311;1270;127997;-65
2022/01/11 20:56:58;;;;;;;;;;;;;;;-4.60;80.09;101452.53;433542;1269;127626;-66
2022/01/11 21:07:03;;;;;;;;;;;;;;;-4.48;79.94;101456.77;430738;1270;128310;-65
2022/01/11 21:27:25;;;;;;;;;;;;;;;-4.45;79.88;101446.61;434587;1270;127266;-65
2022/01/11 21:37:30;;;;;;;;;;;;;;;-4.38;80.08;101456.03;431464;1271;128256;-66
2022/01/11 21:47:34;;;;;;;;;;;;;;;-4.41;79.83;101452.02;431169;1271;126391;-64
2022/01/11 21:57:38;;;;;;;;;;;;;;;-4.50;79.89;101443.58;431827;1273;126968;-65
2022/01/11 22:07:42;;;;;;;;;;;;;;;-4.54;79.96;101444.50;433336;1273;127209;-65
2022/01/11 22:17:49;;;;;;;;;;;;;;;-4.55;80.08;101441.73;432608;1271;127186;-66
2022/01/11 22:27:54;;;;;;;;;;;;;;;-4.54;80.01;101449.11;437566;1271;128357;-65
2022/01/11 22:37:59;;;;;;;;;;;;;;;-4.55;80.11;101447.55;432186;1272;127559;-65
2022/01/11 22:48:05;;;;;;;;;;;;;;;-4.44;80.30;101438.11;432861;1271;127878;-64
2022/01/11 22:58:09;;;;;;;;;;;;;;;-4.31;80.21;101433.66;431271;1271;129270;-65
2022/01/11 23:08:14;;;;;;;;;;;;;;;-4.27;80.09;101446.24;432263;1271;127612;-67
2022/01/11 23:18:19;;;;;;;;;;;;;;;-4.22;80.04;101433.04;434712;1271;129788;-66
2022/01/11 23:28:24;;;;;;;;;;;;;;;-4.16;80.06;101438.31;436070;1270;128380;-66
2022/01/11 23:39:30;;;;;;;76.20;38.10;;;;;;;-4.11;79.92;101429.05;419233;1310;601315;-64
2022/01/11 23:49:34;;;;;;;;;;;;;;;-4.18;79.80;101425.77;430889;1280;481440;-64
2022/01/11 23:59:40;;;;;;;67.00;33.30;;;;;;;-4.30;80.03;101427.70;431431;1279;126686;-64
